Time;durP1;ratioP1;P1;durP2;ratioP2;P2;SDS_P1;SDS_P2;PMS_P1;PMS_P2;Temp;Humidity;BMP_temperature;BMP_pressure;BME280_temperature;BME280_humidity;BME280_pressure;Samples;Min_cycle;Max_cycle;Signal;HPM_P1;HPM_P2
2024/01/14 00:00:37;;;;;;;59.60;18.77;;;;;;;;;;5048491;28;20043;-60
2024/01/14 00:03:03;;;;;;;87.60;23.10;;;;;;;;;;5050496;28;20425;-60
2024/01/14 00:05:29;;;;;;;124.47;28.67;;;;;;;;;;5049294;28;20025;-61
2024/01/14 00:07:54;;;;;;;100.10;28.33;;;;;;;;;;5049999;28;20047;-61
2024/01/14 00:10:20;;;;;;;83.75;23.08;;;;;;;;;;5051205;28;20094;-62
2024/01/14 00:12:45;;;;;;;94.63;24.10;;;;;;;;;;5046439;28;20025;-60
2024/01/14 00:15:11;;;;;;;68.03;21.40;;;;;;;;;;5052200;28;20465;-60
2024/01/14 00:17:41;;;;;;;98.72;24.67;;;;;;;;;;5049821;28;20035;-60
2024/01/14 00:20:08;;;;;;;111.22;27.88;;;;;;;;;;5031110;28;20087;-61
2024/01/14 00:22:34;;;;;;;113.80;25.40;;;;;;;;;;5051357;28;20059;-61
2024/01/14 00:24:59;;;;;;;122.57;26.67;;;;;;;;;;5029170;28;20407;-60
2024/01/14 00:27:24;;;;;;;100.43;23.42;;;;;;;;;;5034685;28;20029;-60
2024/01/14 00:29:50;;;;;;;89.50;24.05;;;;;;;;;;5049432;28;20086;-60
2024/01/14 00:32:15;;;;;;;148.52;29.00;;;;;;;;;;5050877;28;20043;-62
2024/01/14 00:34:43;;;;;;;87.90;23.13;;;;;;;;;;5048561;28;20039;-61
2024/01/14 00:37:08;;;;;;;73.25;20.80;;;;;;;;;;5048389;28;20389;-60
2024/01/14 00:39:37;;;;;;;151.82;30.48;;;;;;;;;;5034174;28;20033;-62
2024/01/14 00:42:04;;;;;;;134.30;29.48;;;;;;;;;;5050132;28;20098;-61
2024/01/14 00:44:30;;;;;;;94.35;23.42;;;;;;;;;;5050080;28;20037;-60
2024/01/14 00:46:55;;;;;;;134.23;30.08;;;;;;;;;;5031879;28;20663;-58
2024/01/14 00:49:20;;;;;;;100.45;25.08;;;;;;;;;;5047987;28;20481;-60
2024/01/14 00:51:49;;;;;;;111.15;25.10;;;;;;;;;;5044280;28;20021;-60
2024/01/14 00:54:14;;;;;;;65.72;20.77;;;;;;;;;;5051223;28;20021;-59
2024/01/14 00:56:39;;;;;;;140.63;29.05;;;;;;;;;;5050422;28;20079;-61
2024/01/14 00:59:05;;;;;;;85.88;22.88;;;;;;;;;;5051328;28;20024;-61
2024/01/14 01:01:31;;;;;;;62.78;18.90;;;;;;;;;;5050824;28;20500;-61
2024/01/14 01:03:56;;;;;;;100.80;24.67;;;;;;;;;;5048202;28;20036;-60
2024/01/14 01:06:21;;;;;;;89.25;23.48;;;;;;;;;;5045689;28;20037;-60
2024/01/14 01:08:47;;;;;;;95.60;21.98;;;;;;;;;;5049212;28;20040;-58
2024/01/14 01:11:16;;;;;;;72.75;22.90;;;;;;;;;;5033390;28;20062;-58
2024/01/14 01:13:41;;;;;;;130.77;28.05;;;;;;;;;;5050361;28;20048;-61
2024/01/14 01:16:06;;;;;;;81.50;19.63;;;;;;;;;;5050686;28;20123;-61
2024/01/14 01:18:32;;;;;;;98.25;23.83;;;;;;;;;;5050882;28;20386;-59
2024/01/14 01:20:57;;;;;;;99.65;24.50;;;;;;;;;;5050100;28;20036;-61
2024/01/14 01:23:23;;;;;;;91.63;21.75;;;;;;;;;;5051408;28;20068;-61
2024/01/14 01:25:48;;;;;;;107.95;26.73;;;;;;;;;;5050162;28;20144;-60
2024/01/14 01:28:13;;;;;;;120.72;25.80;;;;;;;;;;5050878;28;20055;-57
2024/01/14 01:30:39;;;;;;;74.85;22.50;;;;;;;;;;5050301;28;20025;-60
2024/01/14 01:33:04;;;;;;;89.57;22.98;;;;;;;;;;5050824;28;20039;-59
2024/01/14 01:35:29;;;;;;;91.80;22.88;;;;;;;;;;5050861;28;20037;-59
2024/01/14 01:37:55;;;;;;;97.47;25.17;;;;;;;;;;5050259;28;20033;-61
2024/01/14 01:40:20;;;;;;;68.90;20.35;;;;;;;;;;5054216;28;20461;-58
2024/01/14 01:42:47;;;;;;;109.55;25.52;;;;;;;;;;5049302;28;20042;-59
2024/01/14 01:45:12;;;;;;;89.82;22.95;;;;;;;;;;5035028;28;20029;-58
2024/01/14 01:47:39;;;;;;;103.53;23.30;;;;;;;;;;5034652;28;20040;-62
2024/01/14 01:50:05;;;;;;;96.30;22.38;;;;;;;;;;5046927;28;20116;-57
2024/01/14 01:52:30;;;;;;;86.22;23.65;;;;;;;;;;5051612;28;20067;-61
2024/01/14 01:54:56;;;;;;;98.38;25.65;;;;;;;;;;5049102;28;20044;-59
2024/01/14 01:57:22;;;;;;;89.82;23.38;;;;;;;;;;5042774;28;20418;-59
2024/01/14 01:59:48;;;;;;;107.47;26.02;;;;;;;;;;5055057;28;20481;-58
2024/01/14 02:02:14;;;;;;;100.47;25.15;;;;;;;;;;5054385;28;20087;-58
2024/01/14 02:04:39;;;;;;;76.70;21.23;;;;;;;;;;5054205;28;20021;-60
2024/01/14 02:07:06;;;;;;;120.43;27.77;;;;;;;;;;5053056;28;20538;-59
2024/01/14 02:09:33;;;;;;;103.38;25.85;;;;;;;;;;5052936;28;20388;-58
2024/01/14 02:11:59;;;;;;;77.75;20.13;;;;;;;;;;5052165;28;20072;-59
2024/01/14 02:14:24;;;;;;;100.22;24.63;;;;;;;;;;5052843;28;20280;-57
2024/01/14 02:16:50;;;;;;;96.05;23.67;;;;;;;;;;5051938;28;20838;-59
2024/01/14 02:19:15;;;;;;;69.15;19.13;;;;;;;;;;5053835;28;20091;-59
2024/01/14 02:21:56;;;;;;;76.15;20.08;;;;;;;;;;5052817;28;20029;-60
2024/01/14 02:24:24;;;;;;;63.25;18.90;;;;;;;;;;5053593;28;20279;-59
2024/01/14 02:26:50;;;;;;;101.28;25.27;;;;;;;;;;5051728;28;20041;-60
2024/01/14 02:29:15;;;;;;;80.78;20.77;;;;;;;;;;5053785;28;20029;-59
2024/01/14 02:31:40;;;;;;;113.10;26.90;;;;;;;;;;5052514;28;20170;-61
2024/01/14 02:34:07;;;;;;;81.05;21.15;;;;;;;;;;5053023;28;20136;-58
2024/01/14 02:36:33;;;;;;;61.67;17.05;;;;;;;;;;5053707;28;20030;-61
2024/01/14 02:38:58;;;;;;;97.70;25.75;;;;;;;;;;5052467;28;20492;-61
2024/01/14 02:41:24;;;;;;;77.22;19.77;;;;;;;;;;5053181;28;20029;-61
2024/01/14 02:43:50;;;;;;;62.00;18.75;;;;;;;;;;5052700;28;20037;-61
2024/01/14 02:46:15;;;;;;;93.53;23.38;;;;;;;;;;5051902;28;20036;-60
2024/01/14 02:48:41;;;;;;;83.18;21.85;;;;;;;;;;5053184;28;20025;-61
2024/01/14 02:51:06;;;;;;;83.60;20.63;;;;;;;;;;5051665;28;20029;-61
2024/01/14 02:53:32;;;;;;;74.40;21.45;;;;;;;;;;5053326;28;20382;-61
2024/01/14 02:55:57;;;;;;;84.80;22.70;;;;;;;;;;5051698;28;20126;-61
2024/01/14 02:58:23;;;;;;;85.40;20.48;;;;;;;;;;5052941;28;20029;-60
2024/01/14 03:00:49;;;;;;;79.28;20.60;;;;;;;;;;5052162;28;20087;-61
2024/01/14 03:03:14;;;;;;;65.00;18.85;;;;;;;;;;5051738;28;20040;-58
2024/01/14 03:05:40;;;;;;;100.50;25.27;;;;;;;;;;5053252;28;20123;-60
2024/01/14 03:08:05;;;;;;;89.75;22.77;;;;;;;;;;5052167;28;20037;-60
2024/01/14 03:10:30;;;;;;;90.57;21.92;;;;;;;;;;5052958;28;20461;-60
2024/01/14 03:12:56;;;;;;;44.85;14.82;;;;;;;;;;5052424;28;20052;-59
2024/01/14 03:15:21;;;;;;;82.30;21.63;;;;;;;;;;5052527;28;20064;-58
2024/01/14 03:17:46;;;;;;;70.88;17.40;;;;;;;;;;5050102;28;20043;-60
2024/01/14 03:20:12;;;;;;;105.47;26.30;;;;;;;;;;5052766;28;20377;-59
2024/01/14 03:22:37;;;;;;;92.90;22.45;;;;;;;;;;5052852;28;20037;-59
2024/01/14 03:25:03;;;;;;;101.13;23.67;;;;;;;;;;5050993;28;20072;-59
2024/01/14 03:27:29;;;;;;;103.35;22.80;;;;;;;;;;5043856;28;20029;-59
2024/01/14 03:29:54;;;;;;;106.47;25.23;;;;;;;;;;5034667;28;20029;-61
2024/01/14 03:32:20;;;;;;;120.38;27.90;;;;;;;;;;5051803;28;20033;-60
2024/01/14 03:34:45;;;;;;;93.43;22.70;;;;;;;;;;5050733;28;20029;-61
2024/01/14 03:37:11;;;;;;;99.10;25.60;;;;;;;;;;5038607;28;20033;-61
2024/01/14 03:39:36;;;;;;;64.95;16.42;;;;;;;;;;5032750;28;20025;-60
2024/01/14 03:42:01;;;;;;;83.13;22.42;;;;;;;;;;5049710;28;20401;-60
2024/01/14 03:44:27;;;;;;;117.07;25.90;;;;;;;;;;5041364;28;20040;-60
2024/01/14 03:46:52;;;;;;;110.20;26.83;;;;;;;;;;5050106;28;20040;-61
2024/01/14 03:49:18;;;;;;;60.45;17.13;;;;;;;;;;5050796;28;20040;-61
2024/01/14 03:51:43;;;;;;;76.43;21.13;;;;;;;;;;5050222;28;20063;-60
2024/01/14 03:54:08;;;;;;;73.38;20.08;;;;;;;;;;5045496;28;20116;-60
2024/01/14 03:56:34;;;;;;;103.55;24.30;;;;;;;;;;5059564;28;20485;-59
2024/01/14 03:58:59;;;;;;;86.55;23.73;;;;;;;;;;5047773;28;20032;-60
2024/01/14 04:01:25;;;;;;;63.00;17.63;;;;;;;;;;5027568;28;20143;-60
2024/01/14 04:03:50;;;;;;;90.55;23.27;;;;;;;;;;5044234;28;20579;-61
2024/01/14 04:06:20;;;;;;;81.65;20.40;;;;;;;;;;5049153;28;20041;-57
2024/01/14 04:08:46;;;;;;;94.23;20.37;;;;;;;;;;5045524;28;20037;-61
2024/01/14 04:11:11;;;;;;;75.32;19.65;;;;;;;;;;5050194;28;20106;-57
2024/01/14 04:13:37;;;;;;;115.32;24.75;;;;;;;;;;5051066;28;20436;-58
2024/01/14 04:16:02;;;;;;;99.15;23.65;;;;;;;;;;5049846;28;20037;-59
2024/01/14 04:18:29;;;;;;;93.57;24.42;;;;;;;;;;5040367;28;20083;-59
2024/01/14 04:20:55;;;;;;;141.05;28.83;;;;;;;;;;5048772;28;20036;-59
2024/01/14 04:23:20;;;;;;;98.32;22.70;;;;;;;;;;5049561;28;20124;-59
2024/01/14 04:25:45;;;;;;;119.10;27.33;;;;;;;;;;5051417;28;20078;-59
2024/01/14 04:28:11;;;;;;;77.88;20.77;;;;;;;;;;5032833;28;20041;-58
2024/01/14 04:30:36;;;;;;;63.70;19.90;;;;;;;;;;5051432;28;20154;-60
2024/01/14 04:33:02;;;;;;;84.65;21.20;;;;;;;;;;5050138;28;20174;-57
2024/01/14 04:35:27;;;;;;;98.93;25.70;;;;;;;;;;5051531;28;20065;-56
2024/01/14 04:37:53;;;;;;;74.07;19.77;;;;;;;;;;5050129;28;20429;-59
2024/01/14 04:40:18;;;;;;;81.68;19.23;;;;;;;;;;5051328;28;20029;-60
2024/01/14 04:42:43;;;;;;;46.30;17.17;;;;;;;;;;5051063;28;20063;-60
2024/01/14 04:45:09;;;;;;;68.07;18.60;;;;;;;;;;5050321;28;20029;-60
2024/01/14 04:47:35;;;;;;;101.70;23.65;;;;;;;;;;5051356;28;20052;-59
2024/01/14 04:50:01;;;;;;;74.13;18.98;;;;;;;;;;5050007;28;20592;-60
2024/01/14 04:52:26;;;;;;;82.45;21.83;;;;;;;;;;5049235;28;20388;-58
2024/01/14 04:54:52;;;;;;;90.95;21.88;;;;;;;;;;5029362;28;20125;-61
2024/01/14 04:57:17;;;;;;;102.28;25.13;;;;;;;;;;5045821;28;20446;-57
2024/01/14 04:59:42;;;;;;;75.22;19.60;;;;;;;;;;5049880;28;20032;-59
2024/01/14 05:02:08;;;;;;;72.75;19.70;;;;;;;;;;5050374;28;20029;-58
2024/01/14 05:04:33;;;;;;;106.85;24.40;;;;;;;;;;5051340;28;20449;-60
2024/01/14 05:06:59;;;;;;;118.50;27.65;;;;;;;;;;5049789;28;20033;-61
2024/01/14 05:09:24;;;;;;;80.97;22.75;;;;;;;;;;5051229;28;20033;-59
2024/01/14 05:11:50;;;;;;;130.65;28.70;;;;;;;;;;5051006;28;20033;-60
2024/01/14 05:14:15;;;;;;;127.97;27.70;;;;;;;;;;5052050;28;20108;-59
2024/01/14 05:16:41;;;;;;;117.68;27.88;;;;;;;;;;5055295;28;20388;-59
2024/01/14 05:19:06;;;;;;;81.05;20.42;;;;;;;;;;5054082;28;20449;-59
2024/01/14 05:21:31;;;;;;;133.55;28.70;;;;;;;;;;5054701;28;20033;-60
2024/01/14 05:23:57;;;;;;;133.75;28.77;;;;;;;;;;5052839;28;20025;-57
2024/01/14 05:26:25;;;;;;;93.43;23.45;;;;;;;;;;5053287;28;20081;-59
2024/01/14 05:28:51;;;;;;;112.47;25.83;;;;;;;;;;5054712;28;20520;-60
2024/01/14 05:31:16;;;;;;;140.93;29.17;;;;;;;;;;5054503;28;20063;-60
2024/01/14 05:33:42;;;;;;;90.95;23.80;;;;;;;;;;5055013;28;20040;-59
2024/01/14 05:36:07;;;;;;;105.93;25.80;;;;;;;;;;5053820;28;20039;-60
2024/01/14 05:38:33;;;;;;;118.40;27.60;;;;;;;;;;5054549;28;20024;-59
2024/01/14 05:40:58;;;;;;;126.10;28.60;;;;;;;;;;5054162;28;20075;-58
2024/01/14 05:43:23;;;;;;;112.18;27.58;;;;;;;;;;5055048;28;20056;-58
2024/01/14 05:45:49;;;;;;;83.53;21.35;;;;;;;;;;5054342;28;20473;-59
2024/01/14 05:48:14;;;;;;;80.20;23.50;;;;;;;;;;5053830;28;20040;-59
2024/01/14 05:50:39;;;;;;;104.55;25.48;;;;;;;;;;5054648;28;20036;-59
2024/01/14 05:53:05;;;;;;;98.22;22.15;;;;;;;;;;5050148;28;20035;-59
2024/01/14 05:55:30;;;;;;;96.85;24.55;;;;;;;;;;5054994;28;20032;-58
2024/01/14 05:57:55;;;;;;;73.35;22.33;;;;;;;;;;5054128;28;20052;-61
2024/01/14 06:00:22;;;;;;;120.85;25.88;;;;;;;;;;5054127;28;20044;-58
2024/01/14 06:02:49;;;;;;;131.05;28.88;;;;;;;;;;5053790;28;20489;-60
2024/01/14 06:05:15;;;;;;;85.22;23.05;;;;;;;;;;5035651;28;20116;-59
2024/01/14 06:07:40;;;;;;;130.00;28.80;;;;;;;;;;5054662;28;20028;-60
2024/01/14 06:10:06;;;;;;;108.13;23.73;;;;;;;;;;5052964;28;20047;-61
2024/01/14 06:12:31;;;;;;;83.45;22.38;;;;;;;;;;5054098;28;20039;-59
2024/01/14 06:14:56;;;;;;;114.38;24.48;;;;;;;;;;5053609;28;20040;-62
2024/01/14 06:17:24;;;;;;;121.70;25.45;;;;;;;;;;5055369;28;20175;-60
2024/01/14 06:19:50;;;;;;;93.95;23.95;;;;;;;;;;5056141;28;20040;-60
2024/01/14 06:22:15;;;;;;;76.13;21.63;;;;;;;;;;5065338;28;20187;-61
2024/01/14 06:24:40;;;;;;;123.05;27.95;;;;;;;;;;5063845;28;20029;-60
2024/01/14 06:27:06;;;;;;;108.30;24.98;;;;;;;;;;5045609;28;20066;-61
2024/01/14 06:29:31;;;;;;;118.60;27.55;;;;;;;;;;5054237;28;20361;-60
2024/01/14 06:31:58;;;;;;;129.27;27.75;;;;;;;;;;5053333;28;20033;-61
2024/01/14 06:34:24;;;;;;;67.38;21.13;;;;;;;;;;5053863;28;20053;-61
2024/01/14 06:36:49;;;;;;;70.55;19.17;;;;;;;;;;5053360;28;20091;-60
2024/01/14 06:39:14;;;;;;;80.97;23.52;;;;;;;;;;5052700;28;20081;-61
2024/01/14 06:41:40;;;;;;;121.50;28.02;;;;;;;;;;5052855;28;20132;-61
2024/01/14 06:44:05;;;;;;;99.88;24.65;;;;;;;;;;5051747;28;20031;-60
2024/01/14 06:46:30;;;;;;;81.50;22.20;;;;;;;;;;5053165;28;20461;-60
2024/01/14 06:48:56;;;;;;;70.93;19.98;;;;;;;;;;5053192;28;20021;-61
2024/01/14 06:51:21;;;;;;;104.95;25.33;;;;;;;;;;5053147;28;20036;-60
2024/01/14 06:53:47;;;;;;;92.75;23.40;;;;;;;;;;5051586;28;20048;-60
2024/01/14 06:56:16;;;;;;;95.47;27.52;;;;;;;;;;5049605;28;20040;-60
2024/01/14 06:58:41;;;;;;;93.65;23.15;;;;;;;;;;5053402;28;20033;-60
2024/01/14 07:01:07;;;;;;;110.97;27.45;;;;;;;;;;5051996;28;20033;-60
2024/01/14 07:03:33;;;;;;;99.32;24.10;;;;;;;;;;5035450;28;20112;-59
2024/01/14 07:05:58;;;;;;;65.82;20.35;;;;;;;;;;5041179;28;20117;-61
2024/01/14 07:08:25;;;;;;;107.70;25.25;;;;;;;;;;5052810;28;20032;-60
2024/01/14 07:10:50;;;;;;;109.60;26.88;;;;;;;;;;5034541;28;20033;-60
2024/01/14 07:13:17;;;;;;;79.13;21.77;;;;;;;;;;5052266;28;20559;-60
2024/01/14 07:15:42;;;;;;;70.30;18.45;;;;;;;;;;5052386;28;20477;-59
2024/01/14 07:18:08;;;;;;;125.53;26.20;;;;;;;;;;5051881;28;20044;-59
2024/01/14 07:20:33;;;;;;;73.40;24.23;;;;;;;;;;5052576;28;20029;-59
2024/01/14 07:22:58;;;;;;;111.30;24.45;;;;;;;;;;5052407;28;20057;-60
2024/01/14 07:25:25;;;;;;;97.85;24.50;;;;;;;;;;5050593;28;20178;-61
2024/01/14 07:27:50;;;;;;;65.50;20.83;;;;;;;;;;5051604;28;20540;-61
2024/01/14 07:30:18;;;;;;;101.15;25.27;;;;;;;;;;5051750;28;20103;-61
2024/01/14 07:32:45;;;;;;;66.93;18.23;;;;;;;;;;5046164;28;20022;-61
2024/01/14 07:35:11;;;;;;;101.90;24.55;;;;;;;;;;5032088;28;20044;-61
2024/01/14 07:37:36;;;;;;;105.20;25.85;;;;;;;;;;5049993;28;20473;-60
2024/01/14 07:40:02;;;;;;;81.55;21.17;;;;;;;;;;5051733;28;20033;-60
2024/01/14 07:42:27;;;;;;;95.63;21.73;;;;;;;;;;5046289;28;20045;-60
2024/01/14 07:44:53;;;;;;;127.57;27.27;;;;;;;;;;5031840;28;20489;-60
2024/01/14 07:47:20;;;;;;;83.20;22.23;;;;;;;;;;5046459;28;20040;-60
2024/01/14 07:49:48;;;;;;;94.75;22.45;;;;;;;;;;5052372;28;20104;-60
2024/01/14 07:52:16;;;;;;;82.47;22.20;;;;;;;;;;5049765;28;20025;-60
2024/01/14 07:54:41;;;;;;;72.55;22.20;;;;;;;;;;5051774;28;20037;-60
2024/01/14 07:57:07;;;;;;;69.22;18.50;;;;;;;;;;5051254;28;20079;-61
2024/01/14 07:59:32;;;;;;;67.82;20.85;;;;;;;;;;5051203;28;20037;-61
2024/01/14 08:01:57;;;;;;;67.82;20.73;;;;;;;;;;5051612;28;20028;-61
2024/01/14 08:04:23;;;;;;;75.60;19.33;;;;;;;;;;5037189;28;20033;-61
2024/01/14 08:06:48;;;;;;;72.60;18.02;;;;;;;;;;5032211;28;20120;-60
2024/01/14 08:09:14;;;;;;;68.32;20.35;;;;;;;;;;5037786;28;20037;-61
2024/01/14 08:11:39;;;;;;;56.88;16.55;;;;;;;;;;5038486;28;20036;-61
2024/01/14 08:14:05;;;;;;;85.88;22.55;;;;;;;;;;5046884;28;20033;-62
2024/01/14 08:16:30;;;;;;;70.55;19.17;;;;;;;;;;5052039;28;20540;-61
2024/01/14 08:18:55;;;;;;;50.30;15.43;;;;;;;;;;5052035;28;20029;-60
2024/01/14 08:21:21;;;;;;;55.92;18.00;;;;;;;;;;5049626;28;20025;-59
2024/01/14 08:23:46;;;;;;;72.50;19.63;;;;;;;;;;5031700;28;20030;-59
2024/01/14 08:26:13;;;;;;;58.63;18.27;;;;;;;;;;5030831;28;20025;-60
2024/01/14 08:28:38;;;;;;;69.38;19.58;;;;;;;;;;5031745;28;20061;-60
2024/01/14 08:31:04;;;;;;;84.88;23.90;;;;;;;;;;5034193;28;20110;-62
2024/01/14 08:33:29;;;;;;;46.38;15.50;;;;;;;;;;5050836;28;20469;-59
2024/01/14 08:35:55;;;;;;;69.72;21.10;;;;;;;;;;5051341;28;20393;-60
2024/01/14 08:38:21;;;;;;;69.82;19.45;;;;;;;;;;5050767;28;20612;-58
2024/01/14 08:40:46;;;;;;;57.28;17.05;;;;;;;;;;5051574;28;20017;-59
2024/01/14 08:43:12;;;;;;;65.65;19.88;;;;;;;;;;5050445;28;20393;-58
2024/01/14 08:45:38;;;;;;;57.60;18.58;;;;;;;;;;5051595;28;20087;-59
2024/01/14 08:48:06;;;;;;;52.80;17.38;;;;;;;;;;5050394;28;20029;-60
2024/01/14 08:50:31;;;;;;;68.72;18.88;;;;;;;;;;5051067;28;20108;-60
2024/01/14 08:52:57;;;;;;;60.22;17.55;;;;;;;;;;5051688;28;20430;-59
2024/01/14 08:55:22;;;;;;;78.93;22.23;;;;;;;;;;5050635;28;20311;-61
2024/01/14 08:57:48;;;;;;;33.05;14.38;;;;;;;;;;5046704;28;20024;-60
2024/01/14 09:00:13;;;;;;;68.53;19.77;;;;;;;;;;5049743;28;20020;-60
2024/01/14 09:02:39;;;;;;;63.63;19.02;;;;;;;;;;5062297;28;20053;-61
2024/01/14 09:05:05;;;;;;;48.33;17.13;;;;;;;;;;5047672;28;20120;-60
2024/01/14 09:07:30;;;;;;;46.75;16.58;;;;;;;;;;5050208;28;20043;-59
2024/01/14 09:09:56;;;;;;;41.58;14.70;;;;;;;;;;5051388;28;20433;-59
2024/01/14 09:12:21;;;;;;;45.92;16.50;;;;;;;;;;5050486;28;20021;-57
2024/01/14 09:14:47;;;;;;;53.83;18.17;;;;;;;;;;5050378;28;20033;-60
2024/01/14 09:17:13;;;;;;;70.93;22.08;;;;;;;;;;5032724;28;20033;-60
2024/01/14 09:19:38;;;;;;;65.25;20.73;;;;;;;;;;5051155;28;20037;-59
2024/01/14 09:22:04;;;;;;;51.50;16.40;;;;;;;;;;5050862;28;20041;-62
2024/01/14 09:24:29;;;;;;;63.00;19.58;;;;;;;;;;5049588;28;20028;-60
2024/01/14 09:26:54;;;;;;;75.03;21.27;;;;;;;;;;5041292;28;20484;-60
2024/01/14 09:29:21;;;;;;;52.80;17.20;;;;;;;;;;5036089;28;20036;-60
2024/01/14 09:31:47;;;;;;;61.85;17.88;;;;;;;;;;5050954;28;20061;-59
2024/01/14 09:34:12;;;;;;;54.55;15.98;;;;;;;;;;5050023;28;20110;-60
2024/01/14 09:36:40;;;;;;;58.80;17.23;;;;;;;;;;5051279;28;20037;-60
2024/01/14 09:39:10;;;;;;;49.03;16.75;;;;;;;;;;5047907;28;20039;-61
2024/01/14 09:41:56;;;;;;;47.47;15.70;;;;;;;;;;5050265;28;20053;-61
2024/01/14 09:44:21;;;;;;;49.08;16.85;;;;;;;;;;5050141;28;20043;-61
2024/01/14 09:46:47;;;;;;;42.88;17.23;;;;;;;;;;5051053;28;20108;-61
2024/01/14 09:49:15;;;;;;;56.28;14.32;;;;;;;;;;5049786;28;20469;-60
2024/01/14 09:51:45;;;;;;;37.35;12.77;;;;;;;;;;5050739;28;20041;-61
2024/01/14 09:54:11;;;;;;;43.00;13.77;;;;;;;;;;5050057;28;20425;-61
2024/01/14 09:56:38;;;;;;;39.47;13.35;;;;;;;;;;5032918;28;20054;-61
2024/01/14 09:59:04;;;;;;;36.75;13.38;;;;;;;;;;5050479;28;20025;-61
2024/01/14 10:01:33;;;;;;;33.97;12.25;;;;;;;;;;5053100;28;20090;-61
2024/01/14 10:04:03;;;;;;;30.70;12.63;;;;;;;;;;5054369;28;20115;-60
2024/01/14 10:06:28;;;;;;;41.20;14.30;;;;;;;;;;5053040;28;20681;-62
2024/01/14 10:08:55;;;;;;;54.03;17.70;;;;;;;;;;5054142;28;20032;-62
2024/01/14 10:11:20;;;;;;;36.13;13.23;;;;;;;;;;5053507;28;20120;-60
2024/01/14 10:13:48;;;;;;;49.47;18.17;;;;;;;;;;5054485;28;20064;-61
2024/01/14 10:16:14;;;;;;;38.63;14.63;;;;;;;;;;5053314;28;20374;-62
2024/01/14 10:18:39;;;;;;;53.08;20.05;;;;;;;;;;5054134;28;20166;-61
2024/01/14 10:21:05;;;;;;;42.83;15.80;;;;;;;;;;5054233;28;20033;-61
2024/01/14 10:23:33;;;;;;;36.03;14.98;;;;;;;;;;5053486;28;20035;-60
2024/01/14 10:26:02;;;;;;;45.90;15.63;;;;;;;;;;5053373;28;20021;-61
2024/01/14 10:28:34;;;;;;;63.17;18.77;;;;;;;;;;5044045;28;20033;-63
2024/01/14 10:31:06;;;;;;;46.78;15.93;;;;;;;;;;5034057;28;20072;-62
2024/01/14 10:33:33;;;;;;;46.15;16.58;;;;;;;;;;5033458;28;20029;-62
2024/01/14 10:35:59;;;;;;;63.95;19.75;;;;;;;;;;5039938;28;20136;-62
2024/01/14 10:38:25;;;;;;;33.58;13.40;;;;;;;;;;5052648;28;20536;-61
2024/01/14 10:40:51;;;;;;;68.75;20.63;;;;;;;;;;5053779;28;20120;-61
2024/01/14 10:43:17;;;;;;;61.03;17.30;;;;;;;;;;5051684;28;20378;-62
2024/01/14 10:45:46;;;;;;;36.78;11.90;;;;;;;;;;5053652;28;20044;-62
2024/01/14 10:48:13;;;;;;;40.63;15.48;;;;;;;;;;5052879;28;20064;-67
2024/01/14 10:50:42;;;;;;;35.00;12.77;;;;;;;;;;5060799;28;20029;-61
2024/01/14 10:53:15;;;;;;;34.10;11.60;;;;;;;;;;5066855;28;20029;-62
2024/01/14 10:55:41;;;;;;;42.08;15.05;;;;;;;;;;5065592;28;20079;-62
2024/01/14 10:58:07;;;;;;;51.10;17.48;;;;;;;;;;5057771;28;20033;-63
2024/01/14 11:00:37;;;;;;;48.75;15.38;;;;;;;;;;5052575;28;20251;-62
2024/01/14 11:03:06;;;;;;;34.43;12.57;;;;;;;;;;5033481;28;20036;-62
2024/01/14 11:05:33;;;;;;;29.20;11.95;;;;;;;;;;5032260;28;20021;-62
2024/01/14 11:08:01;;;;;;;32.45;14.25;;;;;;;;;;5033454;28;20040;-62
2024/01/14 11:10:27;;;;;;;46.22;16.95;;;;;;;;;;5048958;28;20032;-62
2024/01/14 11:13:02;;;;;;;34.08;12.82;;;;;;;;;;5052387;28;20051;-61
2024/01/14 11:15:55;;;;;;;37.88;13.13;;;;;;;;;;5052460;28;20039;-61
2024/01/14 11:18:29;;;;;;;30.67;11.93;;;;;;;;;;5052492;28;20024;-61
2024/01/14 11:21:09;;;;;;;38.97;15.40;;;;;;;;;;5052945;28;20471;-62
2024/01/14 11:23:37;;;;;;;26.52;12.98;;;;;;;;;;5052365;28;20040;-61
2024/01/14 11:26:02;;;;;;;41.88;15.20;;;;;;;;;;5052560;28;20025;-61
2024/01/14 11:28:28;;;;;;;39.95;14.23;;;;;;;;;;5034070;28;20032;-62
2024/01/14 11:30:59;;;;;;;27.20;13.13;;;;;;;;;;5052898;28;20473;-61
2024/01/14 11:33:31;;;;;;;;;;;;;;;;;;5034468;28;20021;-60
2024/01/14 11:35:58;;;;;;;34.13;13.88;;;;;;;;;;5052202;28;20277;-61
2024/01/14 11:38:45;;;;;;;32.40;13.23;;;;;;;;;;5052109;28;20064;-61
2024/01/14 11:41:31;;;;;;;27.38;13.73;;;;;;;;;;5052416;28;20036;-62
2024/01/14 11:44:09;;;;;;;37.08;13.75;;;;;;;;;;5052714;28;20029;-61
2024/01/14 11:46:46;;;;;;;27.00;11.93;;;;;;;;;;5051101;28;20516;-61
2024/01/14 11:49:19;;;;;;;27.30;10.98;;;;;;;;;;5051266;28;20059;-62
2024/01/14 11:51:59;;;;;;;32.05;12.07;;;;;;;;;;5051876;28;20493;-62
2024/01/14 11:54:24;;;;;;;30.60;12.60;;;;;;;;;;5051666;28;20481;-62
2024/01/14 11:56:54;;;;;;;26.20;11.38;;;;;;;;;;5051807;28;20064;-62
2024/01/14 11:59:19;;;;;;;20.98;9.98;;;;;;;;;;5043094;28;20079;-61
2024/01/14 12:01:45;;;;;;;25.13;11.25;;;;;;;;;;5046855;28;20444;-61
2024/01/14 12:04:11;;;;;;;24.42;10.77;;;;;;;;;;5052098;28;20033;-61
2024/01/14 12:06:40;;;;;;;24.58;10.95;;;;;;;;;;5050789;28;20035;-60
2024/01/14 12:09:07;;;;;;;26.88;11.00;;;;;;;;;;5052152;28;20033;-60
2024/01/14 12:11:34;;;;;;;28.75;12.25;;;;;;;;;;5050877;28;20029;-60
2024/01/14 12:13:59;;;;;;;24.38;9.65;;;;;;;;;;5051850;28;20064;-60
2024/01/14 12:16:25;;;;;;;35.40;13.73;;;;;;;;;;5050838;28;20072;-61
2024/01/14 12:18:50;;;;;;;21.38;9.93;;;;;;;;;;5051924;28;20405;-62
2024/01/14 12:21:17;;;;;;;33.20;10.98;;;;;;;;;;5051374;28;20033;-63
2024/01/14 12:23:43;;;;;;;24.85;11.75;;;;;;;;;;5051605;28;20033;-61
2024/01/14 12:26:09;;;;;;;32.90;10.80;;;;;;;;;;5051232;28;20021;-63
2024/01/14 12:28:35;;;;;;;28.40;11.07;;;;;;;;;;5050890;28;20536;-60
2024/01/14 12:31:00;;;;;;;24.95;10.82;;;;;;;;;;5050168;28;20120;-61
2024/01/14 12:33:26;;;;;;;49.25;17.65;;;;;;;;;;5051162;28;20358;-60
2024/01/14 12:35:54;;;;;;;41.70;15.70;;;;;;;;;;5051604;28;20033;-62
2024/01/14 12:38:20;;;;;;;42.22;15.68;;;;;;;;;;5050794;28;20536;-61
2024/01/14 12:40:45;;;;;;;30.23;12.35;;;;;;;;;;5051654;28;20120;-61
2024/01/14 12:43:12;;;;;;;25.65;10.65;;;;;;;;;;5051079;28;20409;-60
2024/01/14 12:45:45;;;;;;;33.65;13.10;;;;;;;;;;5050551;28;20036;-60
2024/01/14 12:48:11;;;;;;;34.22;13.38;;;;;;;;;;5051104;28;20087;-61
2024/01/14 12:50:36;;;;;;;22.48;8.50;;;;;;;;;;5049995;28;20473;-61
2024/01/14 12:53:07;;;;;;;35.95;12.98;;;;;;;;;;5050507;28;20041;-61
2024/01/14 12:55:33;;;;;;;31.00;11.40;;;;;;;;;;5050023;28;20029;-61
2024/01/14 12:58:00;;;;;;;27.67;12.07;;;;;;;;;;5051090;28;20162;-61
2024/01/14 13:00:26;;;;;;;33.15;12.45;;;;;;;;;;5033219;28;20037;-62
2024/01/14 13:02:52;;;;;;;33.50;12.82;;;;;;;;;;5048252;28;20041;-63
2024/01/14 13:05:17;;;;;;;43.05;15.32;;;;;;;;;;5051035;28;20489;-63
2024/01/14 13:07:43;;;;;;;35.03;13.20;;;;;;;;;;5051074;28;20065;-62
2024/01/14 13:10:08;;;;;;;39.63;13.50;;;;;;;;;;5051558;28;20025;-62
2024/01/14 13:12:34;;;;;;;38.55;13.93;;;;;;;;;;5049753;28;20037;-62
2024/01/14 13:14:59;;;;;;;35.75;13.93;;;;;;;;;;5051255;28;20040;-62
2024/01/14 13:17:25;;;;;;;34.40;13.48;;;;;;;;;;5032647;28;20242;-63
2024/01/14 13:19:50;;;;;;;35.33;12.90;;;;;;;;;;5051122;28;20036;-62
2024/01/14 13:22:15;;;;;;;30.30;12.88;;;;;;;;;;5050860;28;20488;-62
2024/01/14 13:24:41;;;;;;;23.75;11.32;;;;;;;;;;5050553;28;20033;-62
2024/01/14 13:27:07;;;;;;;28.58;12.20;;;;;;;;;;5050592;28;20389;-62
2024/01/14 13:29:32;;;;;;;37.60;15.40;;;;;;;;;;5050401;28;20060;-62
2024/01/14 13:31:58;;;;;;;31.25;12.82;;;;;;;;;;5050754;28;20036;-62
2024/01/14 13:34:23;;;;;;;40.05;14.45;;;;;;;;;;5049827;28;20029;-62
2024/01/14 13:36:49;;;;;;;31.67;12.90;;;;;;;;;;5054901;28;20056;-63
2024/01/14 13:39:17;;;;;;;31.63;12.10;;;;;;;;;;5055078;28;20115;-61
2024/01/14 13:41:42;;;;;;;35.92;14.60;;;;;;;;;;5053353;28;20053;-61
2024/01/14 13:44:07;;;;;;;20.05;8.73;;;;;;;;;;5053343;28;20037;-61
2024/01/14 13:46:33;;;;;;;25.42;11.55;;;;;;;;;;5054065;28;20102;-62
2024/01/14 13:48:58;;;;;;;23.38;9.65;;;;;;;;;;5054521;28;20055;-60
2024/01/14 13:51:23;;;;;;;31.20;12.05;;;;;;;;;;5053764;28;20051;-61
2024/01/14 13:53:49;;;;;;;33.53;13.27;;;;;;;;;;5054441;28;20033;-61
2024/01/14 13:56:14;;;;;;;28.15;12.07;;;;;;;;;;5054686;28;20033;-61
2024/01/14 13:58:40;;;;;;;34.13;12.25;;;;;;;;;;5054274;28;20511;-63
2024/01/14 14:01:05;;;;;;;21.38;10.27;;;;;;;;;;5054679;28;20103;-62
2024/01/14 14:03:32;;;;;;;36.28;15.05;;;;;;;;;;5053612;28;20119;-63
2024/01/14 14:05:57;;;;;;;26.83;10.32;;;;;;;;;;5054125;28;20037;-62
2024/01/14 14:08:22;;;;;;;41.35;14.10;;;;;;;;;;5053652;28;20448;-63